ZW-0020 weather

Chigwell Airport
Chigwell, Mashonaland West Province, Zimbabwe

Public forecast

Using degrees Celsius for public forecast. Weather courtesy of forecast.io.

METAR (pilot weather report)

Closest report is Robert Gabriel Mugabe International Airport, 65.8 nm (121.9 km) ENE. Retrieved 2019/07/16 03:00 UTC (22 minutes ago):

FVRG 160300Z 08006KT CAVOK 06/04 Q1028 NOSIG

TAF (pilot weather forecast)

Forecast is more than 12 hours old.

Closest forecast is Robert Gabriel Mugabe International Airport, 65.8 nm (121.9 km) ENE. Retrieved 2019/07/13 18:00 UTC (2 days ago):

TAF FVRG 131600Z 1318/1424 08010KT CAVOK